• Join FlightAware (Why Join?)
  • Login
  • US Flag 
12:00AM EDT


 

Airport Tracker/Info


-or-


 

Live Flight TrackerFlight Track Log ✈ KAL1335 ✈ 09-Nov-2013 ✈ RKSS / GMP - RKJY / RSU

Flight Track Log - Related Links

Times and Time Zones

All times are in EST time to prevent confusion due to time zone crossing. See the KAL1335 flight status page for this flight to view local times or setup timezone preferences in your user account.

Time Position Orientation Groundspeed Altitude Reporting Facility
EST Latitude Longitude Course Direction KTS MPH feet Rate Location/Type
11:46PM 37.4733 126.8173 166° South  Level Estimated
11:47PM 37.3882 126.8440 166° South  Level Estimated
11:48PM 37.3126 126.8676 166° South  Level Estimated
11:49PM 37.2370 126.8912 166° South  Level Estimated
11:50PM 37.1614 126.9148 166° South  Level Estimated
11:51PM 37.0858 126.9383 166° South  Level Estimated
11:52PM 37.0101 126.9617 166° South  Level Estimated
11:53PM 36.9345 126.9852 166° South  Level Estimated
11:54PM 36.8466 127.0123 166° South  Level Estimated
11:55PM 36.7588 127.0394 166° South  Level Estimated
11:56PM 36.6710 127.0664 166° South  Level Estimated
11:57PM 36.5831 127.0933 166° South  Level Estimated
11:58PM 36.4952 127.1202 166° South  Level Estimated
11:59PM 36.4074 127.1470 166° South  Level Estimated
12:00AM 36.3195 127.1738 166° South  Level Estimated
12:01AM 36.2316 127.2005 166° South  Level Estimated
12:02AM 36.1437 127.2271 166° South  Level Estimated
12:03AM 36.0558 127.2537 166° South  Level Estimated
12:04AM 35.9679 127.2802 166° South  Level Estimated
12:05AM 35.8800 127.3067 166° South  Level Estimated
12:06AM 35.7921 127.3331 166° South  Level Estimated
12:07AM 35.7042 127.3594 166° South  Level Estimated
12:08AM 35.6163 127.3857 166° South  Level Estimated
12:09AM 35.5284 127.4119 166° South  Level Estimated
12:10AM 35.4404 127.4381 166° South  Level Estimated
12:11AM 35.3525 127.4642 166° South  Level Estimated
12:12AM 35.2646 127.4903 166° South  Level Estimated
12:13AM 35.1766 127.5163 166° South  Level Estimated
12:14AM 35.0887 127.5422 166° South  Level Estimated
12:15AM 35.0007 127.5681 166° South  Level Estimated
12:16AM 34.9127 127.5939 166° South  Level Estimated
12:17AM 34.8398 127.6153 166° South  Level Estimated
12:18AM 34.8398 127.6153 180° South  Level Estimated
12:19AM 34.8398 127.6153 180° South  Level Estimated
12:20AM 34.8398 127.6153 180° South  Level Estimated
12:21AM 34.8398 127.6153 180° South  Level Estimated